sensor_id;sensor_type;location;lat;lon;timestamp;P1;durP1;ratioP1;P2;durP2;ratioP2
59169;SDS011;52474;52.236;5.114;2023-11-19T00:02:18;23.75;;;3.90;;
59169;SDS011;52474;52.236;5.114;2023-11-19T00:04:44;30.13;;;4.80;;
59169;SDS011;52474;52.236;5.114;2023-11-19T00:07:10;29.02;;;4.63;;
59169;SDS011;52474;52.236;5.114;2023-11-19T00:09:38;26.65;;;4.95;;
59169;SDS011;52474;52.236;5.114;2023-11-19T00:12:04;30.52;;;4.40;;
59169;SDS011;52474;52.236;5.114;2023-11-19T00:14:31;24.20;;;4.38;;
59169;SDS011;52474;52.236;5.114;2023-11-19T00:16:57;24.02;;;4.20;;
59169;SDS011;52474;52.236;5.114;2023-11-19T00:19:22;25.02;;;4.93;;
59169;SDS011;52474;52.236;5.114;2023-11-19T00:21:48;30.88;;;4.70;;
59169;SDS011;52474;52.236;5.114;2023-11-19T00:24:13;31.23;;;4.90;;
59169;SDS011;52474;52.236;5.114;2023-11-19T00:26:42;26.17;;;4.50;;
59169;SDS011;52474;52.236;5.114;2023-11-19T00:29:08;28.42;;;4.80;;
59169;SDS011;52474;52.236;5.114;2023-11-19T00:31:33;30.58;;;4.95;;
59169;SDS011;52474;52.236;5.114;2023-11-19T00:33:59;31.50;;;4.93;;
59169;SDS011;52474;52.236;5.114;2023-11-19T00:36:25;31.50;;;6.07;;
59169;SDS011;52474;52.236;5.114;2023-11-19T00:38:51;24.88;;;4.32;;
59169;SDS011;52474;52.236;5.114;2023-11-19T00:41:18;40.17;;;5.90;;
59169;SDS011;52474;52.236;5.114;2023-11-19T00:43:44;30.95;;;5.45;;
59169;SDS011;52474;52.236;5.114;2023-11-19T00:46:10;34.20;;;5.45;;
59169;SDS011;52474;52.236;5.114;2023-11-19T00:48:39;37.63;;;5.30;;
59169;SDS011;52474;52.236;5.114;2023-11-19T00:51:05;35.55;;;5.47;;
59169;SDS011;52474;52.236;5.114;2023-11-19T00:53:31;36.22;;;5.57;;
59169;SDS011;52474;52.236;5.114;2023-11-19T00:56:00;34.50;;;5.78;;
59169;SDS011;52474;52.236;5.114;2023-11-19T00:58:26;41.10;;;5.13;;
59169;SDS011;52474;52.236;5.114;2023-11-19T01:00:52;35.95;;;5.57;;
59169;SDS011;52474;52.236;5.114;2023-11-19T01:03:17;32.20;;;5.88;;
59169;SDS011;52474;52.236;5.114;2023-11-19T01:05:43;46.20;;;5.97;;
59169;SDS011;52474;52.236;5.114;2023-11-19T01:08:10;39.53;;;5.47;;
59169;SDS011;52474;52.236;5.114;2023-11-19T01:10:38;38.22;;;5.57;;
59169;SDS011;52474;52.236;5.114;2023-11-19T01:13:04;47.50;;;6.45;;
59169;SDS011;52474;52.236;5.114;2023-11-19T01:15:32;44.15;;;6.65;;
59169;SDS011;52474;52.236;5.114;2023-11-19T01:17:59;44.15;;;6.30;;
59169;SDS011;52474;52.236;5.114;2023-11-19T01:20:27;44.30;;;6.32;;
59169;SDS011;52474;52.236;5.114;2023-11-19T01:22:54;44.35;;;7.28;;
59169;SDS011;52474;52.236;5.114;2023-11-19T01:25:19;43.15;;;6.55;;
59169;SDS011;52474;52.236;5.114;2023-11-19T01:27:45;43.70;;;7.30;;
59169;SDS011;52474;52.236;5.114;2023-11-19T01:30:11;33.80;;;6.75;;
59169;SDS011;52474;52.236;5.114;2023-11-19T01:32:40;43.95;;;5.97;;
59169;SDS011;52474;52.236;5.114;2023-11-19T01:35:05;41.40;;;6.88;;
59169;SDS011;52474;52.236;5.114;2023-11-19T01:37:33;47.53;;;6.45;;
59169;SDS011;52474;52.236;5.114;2023-11-19T01:40:00;43.65;;;7.47;;
59169;SDS011;52474;52.236;5.114;2023-11-19T01:42:25;38.97;;;5.95;;
59169;SDS011;52474;52.236;5.114;2023-11-19T01:44:58;42.58;;;7.05;;
59169;SDS011;52474;52.236;5.114;2023-11-19T01:47:27;41.53;;;6.95;;
59169;SDS011;52474;52.236;5.114;2023-11-19T01:49:55;41.85;;;6.10;;
59169;SDS011;52474;52.236;5.114;2023-11-19T01:52:22;39.28;;;6.80;;
59169;SDS011;52474;52.236;5.114;2023-11-19T01:54:48;35.75;;;5.82;;
59169;SDS011;52474;52.236;5.114;2023-11-19T01:57:15;43.55;;;7.07;;
59169;SDS011;52474;52.236;5.114;2023-11-19T01:59:41;40.80;;;6.82;;
59169;SDS011;52474;52.236;5.114;2023-11-19T02:02:08;40.95;;;5.95;;
59169;SDS011;52474;52.236;5.114;2023-11-19T02:04:33;46.85;;;7.20;;
59169;SDS011;52474;52.236;5.114;2023-11-19T02:07:00;47.42;;;6.88;;
59169;SDS011;52474;52.236;5.114;2023-11-19T02:09:25;41.50;;;7.00;;
59169;SDS011;52474;52.236;5.114;2023-11-19T02:11:52;46.25;;;6.30;;
59169;SDS011;52474;52.236;5.114;2023-11-19T02:14:21;40.42;;;5.78;;
59169;SDS011;52474;52.236;5.114;2023-11-19T02:16:52;46.35;;;7.35;;
59169;SDS011;52474;52.236;5.114;2023-11-19T02:19:21;44.03;;;6.18;;
59169;SDS011;52474;52.236;5.114;2023-11-19T02:21:46;39.30;;;6.85;;
59169;SDS011;52474;52.236;5.114;2023-11-19T02:24:13;41.72;;;6.00;;
59169;SDS011;52474;52.236;5.114;2023-11-19T02:26:47;45.45;;;7.60;;
59169;SDS011;52474;52.236;5.114;2023-11-19T02:29:23;56.90;;;6.68;;
59169;SDS011;52474;52.236;5.114;2023-11-19T02:31:48;39.60;;;6.88;;
59169;SDS011;52474;52.236;5.114;2023-11-19T02:34:14;45.97;;;6.28;;
59169;SDS011;52474;52.236;5.114;2023-11-19T02:36:40;42.78;;;6.28;;
59169;SDS011;52474;52.236;5.114;2023-11-19T02:39:07;38.55;;;6.60;;
59169;SDS011;52474;52.236;5.114;2023-11-19T02:41:36;44.80;;;7.57;;
59169;SDS011;52474;52.236;5.114;2023-11-19T02:44:01;47.33;;;6.30;;
59169;SDS011;52474;52.236;5.114;2023-11-19T02:46:28;44.65;;;7.15;;
59169;SDS011;52474;52.236;5.114;2023-11-19T02:48:54;43.47;;;7.28;;
59169;SDS011;52474;52.236;5.114;2023-11-19T02:51:19;44.63;;;6.85;;
59169;SDS011;52474;52.236;5.114;2023-11-19T02:53:45;46.72;;;7.65;;
59169;SDS011;52474;52.236;5.114;2023-11-19T02:56:13;38.53;;;6.00;;
59169;SDS011;52474;52.236;5.114;2023-11-19T02:58:50;37.00;;;6.75;;
59169;SDS011;52474;52.236;5.114;2023-11-19T03:01:25;43.60;;;7.18;;
59169;SDS011;52474;52.236;5.114;2023-11-19T03:03:58;51.13;;;7.13;;
59169;SDS011;52474;52.236;5.114;2023-11-19T03:06:26;37.42;;;6.40;;
59169;SDS011;52474;52.236;5.114;2023-11-19T03:08:54;40.63;;;7.00;;
59169;SDS011;52474;52.236;5.114;2023-11-19T03:11:20;46.65;;;8.07;;
59169;SDS011;52474;52.236;5.114;2023-11-19T03:13:46;49.67;;;7.95;;
59169;SDS011;52474;52.236;5.114;2023-11-19T03:16:12;38.90;;;6.55;;
59169;SDS011;52474;52.236;5.114;2023-11-19T03:18:38;43.53;;;6.82;;
59169;SDS011;52474;52.236;5.114;2023-11-19T03:21:07;51.03;;;6.78;;
59169;SDS011;52474;52.236;5.114;2023-11-19T03:23:33;41.50;;;6.50;;
59169;SDS011;52474;52.236;5.114;2023-11-19T03:26:00;47.08;;;7.25;;
59169;SDS011;52474;52.236;5.114;2023-11-19T03:28:29;60.60;;;7.43;;
59169;SDS011;52474;52.236;5.114;2023-11-19T03:30:55;42.70;;;6.72;;
59169;SDS011;52474;52.236;5.114;2023-11-19T03:33:20;41.28;;;6.53;;
59169;SDS011;52474;52.236;5.114;2023-11-19T03:35:46;39.17;;;6.57;;
59169;SDS011;52474;52.236;5.114;2023-11-19T03:38:12;46.33;;;7.13;;
59169;SDS011;52474;52.236;5.114;2023-11-19T03:40:38;46.83;;;6.85;;
59169;SDS011;52474;52.236;5.114;2023-11-19T03:43:04;44.97;;;6.85;;
59169;SDS011;52474;52.236;5.114;2023-11-19T03:45:30;47.63;;;7.93;;
59169;SDS011;52474;52.236;5.114;2023-11-19T03:47:57;44.97;;;7.90;;
59169;SDS011;52474;52.236;5.114;2023-11-19T03:50:22;45.67;;;6.80;;
59169;SDS011;52474;52.236;5.114;2023-11-19T03:52:49;46.45;;;7.43;;
59169;SDS011;52474;52.236;5.114;2023-11-19T03:55:14;47.58;;;6.25;;
59169;SDS011;52474;52.236;5.114;2023-11-19T03:57:40;37.25;;;6.45;;
59169;SDS011;52474;52.236;5.114;2023-11-19T04:00:06;42.75;;;5.85;;
59169;SDS011;52474;52.236;5.114;2023-11-19T04:02:38;55.67;;;7.43;;
59169;SDS011;52474;52.236;5.114;2023-11-19T04:05:04;48.05;;;7.22;;
59169;SDS011;52474;52.236;5.114;2023-11-19T04:07:30;53.40;;;7.50;;
59169;SDS011;52474;52.236;5.114;2023-11-19T04:09:57;39.42;;;7.50;;
59169;SDS011;52474;52.236;5.114;2023-11-19T04:12:22;44.83;;;7.40;;
59169;SDS011;52474;52.236;5.114;2023-11-19T04:14:48;48.15;;;7.10;;
59169;SDS011;52474;52.236;5.114;2023-11-19T04:17:14;49.13;;;6.45;;
59169;SDS011;52474;52.236;5.114;2023-11-19T04:19:39;46.03;;;8.25;;
59169;SDS011;52474;52.236;5.114;2023-11-19T04:22:07;46.50;;;6.97;;
59169;SDS011;52474;52.236;5.114;2023-11-19T04:24:34;51.03;;;7.65;;
59169;SDS011;52474;52.236;5.114;2023-11-19T04:27:00;51.40;;;6.80;;
59169;SDS011;52474;52.236;5.114;2023-11-19T04:29:25;52.08;;;7.97;;
59169;SDS011;52474;52.236;5.114;2023-11-19T04:31:52;50.50;;;7.13;;
59169;SDS011;52474;52.236;5.114;2023-11-19T04:34:18;54.75;;;8.18;;
59169;SDS011;52474;52.236;5.114;2023-11-19T04:36:44;45.30;;;6.80;;
59169;SDS011;52474;52.236;5.114;2023-11-19T04:39:09;51.45;;;7.45;;
59169;SDS011;52474;52.236;5.114;2023-11-19T04:41:50;55.60;;;7.97;;
59169;SDS011;52474;52.236;5.114;2023-11-19T04:44:19;47.88;;;7.30;;
59169;SDS011;52474;52.236;5.114;2023-11-19T04:46:45;60.20;;;7.07;;
59169;SDS011;52474;52.236;5.114;2023-11-19T04:49:12;51.65;;;7.50;;
59169;SDS011;52474;52.236;5.114;2023-11-19T04:51:39;45.92;;;6.85;;
59169;SDS011;52474;52.236;5.114;2023-11-19T04:54:06;45.95;;;6.97;;
59169;SDS011;52474;52.236;5.114;2023-11-19T04:56:34;57.85;;;7.78;;
59169;SDS011;52474;52.236;5.114;2023-11-19T04:59:01;44.72;;;6.43;;
59169;SDS011;52474;52.236;5.114;2023-11-19T05:01:27;46.08;;;7.13;;
59169;SDS011;52474;52.236;5.114;2023-11-19T05:03:53;48.50;;;7.03;;
59169;SDS011;52474;52.236;5.114;2023-11-19T05:06:20;51.85;;;6.78;;
59169;SDS011;52474;52.236;5.114;2023-11-19T05:08:45;46.95;;;6.80;;
59169;SDS011;52474;52.236;5.114;2023-11-19T05:11:11;46.80;;;7.38;;
59169;SDS011;52474;52.236;5.114;2023-11-19T05:13:43;46.80;;;7.00;;
59169;SDS011;52474;52.236;5.114;2023-11-19T05:16:11;41.92;;;7.05;;
59169;SDS011;52474;52.236;5.114;2023-11-19T05:18:39;49.85;;;7.97;;
59169;SDS011;52474;52.236;5.114;2023-11-19T05:21:05;33.55;;;5.72;;
59169;SDS011;52474;52.236;5.114;2023-11-19T05:23:32;38.22;;;6.35;;
59169;SDS011;52474;52.236;5.114;2023-11-19T05:25:59;54.15;;;7.20;;
59169;SDS011;52474;52.236;5.114;2023-11-19T05:28:26;50.95;;;7.20;;
59169;SDS011;52474;52.236;5.114;2023-11-19T05:30:52;50.05;;;7.20;;
59169;SDS011;52474;52.236;5.114;2023-11-19T05:33:17;40.67;;;6.25;;
59169;SDS011;52474;52.236;5.114;2023-11-19T05:35:43;47.38;;;7.35;;
59169;SDS011;52474;52.236;5.114;2023-11-19T05:38:08;41.08;;;6.60;;
59169;SDS011;52474;52.236;5.114;2023-11-19T05:40:35;35.75;;;5.72;;
59169;SDS011;52474;52.236;5.114;2023-11-19T05:43:01;35.97;;;7.25;;
59169;SDS011;52474;52.236;5.114;2023-11-19T05:45:27;46.38;;;6.00;;
59169;SDS011;52474;52.236;5.114;2023-11-19T05:47:52;51.63;;;6.95;;
59169;SDS011;52474;52.236;5.114;2023-11-19T05:50:18;34.22;;;5.32;;
59169;SDS011;52474;52.236;5.114;2023-11-19T05:52:44;38.58;;;5.95;;
59169;SDS011;52474;52.236;5.114;2023-11-19T05:55:10;35.67;;;5.50;;
59169;SDS011;52474;52.236;5.114;2023-11-19T05:57:36;35.60;;;5.60;;
59169;SDS011;52474;52.236;5.114;2023-11-19T06:00:03;37.70;;;6.45;;
59169;SDS011;52474;52.236;5.114;2023-11-19T06:02:37;46.60;;;7.40;;
59169;SDS011;52474;52.236;5.114;2023-11-19T06:05:05;39.60;;;6.70;;
59169;SDS011;52474;52.236;5.114;2023-11-19T06:07:32;39.28;;;6.25;;
59169;SDS011;52474;52.236;5.114;2023-11-19T06:09:58;41.20;;;6.32;;
59169;SDS011;52474;52.236;5.114;2023-11-19T06:12:24;32.10;;;5.72;;
59169;SDS011;52474;52.236;5.114;2023-11-19T06:14:50;45.92;;;5.75;;
59169;SDS011;52474;52.236;5.114;2023-11-19T06:17:15;42.08;;;6.00;;
59169;SDS011;52474;52.236;5.114;2023-11-19T06:19:41;42.65;;;5.72;;
59169;SDS011;52474;52.236;5.114;2023-11-19T06:22:07;43.50;;;6.80;;
59169;SDS011;52474;52.236;5.114;2023-11-19T06:24:32;43.00;;;7.03;;
59169;SDS011;52474;52.236;5.114;2023-11-19T06:26:58;41.58;;;6.32;;
59169;SDS011;52474;52.236;5.114;2023-11-19T06:29:24;45.42;;;6.22;;
59169;SDS011;52474;52.236;5.114;2023-11-19T06:31:50;46.42;;;6.45;;
59169;SDS011;52474;52.236;5.114;2023-11-19T06:34:16;33.95;;;5.70;;
59169;SDS011;52474;52.236;5.114;2023-11-19T06:36:42;38.00;;;5.32;;
59169;SDS011;52474;52.236;5.114;2023-11-19T06:39:10;35.33;;;6.85;;
59169;SDS011;52474;52.236;5.114;2023-11-19T06:41:36;39.40;;;6.22;;
59169;SDS011;52474;52.236;5.114;2023-11-19T06:44:05;44.67;;;6.07;;
59169;SDS011;52474;52.236;5.114;2023-11-19T06:46:31;36.97;;;6.57;;
59169;SDS011;52474;52.236;5.114;2023-11-19T06:48:57;29.65;;;5.05;;
59169;SDS011;52474;52.236;5.114;2023-11-19T06:51:22;44.40;;;5.93;;
59169;SDS011;52474;52.236;5.114;2023-11-19T06:53:49;35.22;;;5.65;;
59169;SDS011;52474;52.236;5.114;2023-11-19T06:56:22;36.35;;;7.03;;
59169;SDS011;52474;52.236;5.114;2023-11-19T06:58:49;37.10;;;6.35;;
59169;SDS011;52474;52.236;5.114;2023-11-19T07:01:16;47.88;;;7.65;;
59169;SDS011;52474;52.236;5.114;2023-11-19T07:03:46;45.53;;;6.38;;
59169;SDS011;52474;52.236;5.114;2023-11-19T07:06:12;38.42;;;5.55;;
59169;SDS011;52474;52.236;5.114;2023-11-19T07:08:41;42.83;;;5.87;;
59169;SDS011;52474;52.236;5.114;2023-11-19T07:11:07;46.85;;;7.82;;
59169;SDS011;52474;52.236;5.114;2023-11-19T07:13:35;34.40;;;6.50;;
59169;SDS011;52474;52.236;5.114;2023-11-19T07:16:01;41.08;;;6.53;;
59169;SDS011;52474;52.236;5.114;2023-11-19T07:18:26;44.83;;;6.57;;
59169;SDS011;52474;52.236;5.114;2023-11-19T07:20:52;39.92;;;6.10;;
59169;SDS011;52474;52.236;5.114;2023-11-19T07:23:19;50.20;;;7.22;;
59169;SDS011;52474;52.236;5.114;2023-11-19T07:25:44;37.67;;;6.57;;
59169;SDS011;52474;52.236;5.114;2023-11-19T07:28:12;44.90;;;7.40;;
59169;SDS011;52474;52.236;5.114;2023-11-19T07:30:38;39.88;;;6.35;;
59169;SDS011;52474;52.236;5.114;2023-11-19T07:33:04;41.38;;;6.50;;
59169;SDS011;52474;52.236;5.114;2023-11-19T07:35:31;38.58;;;5.70;;
59169;SDS011;52474;52.236;5.114;2023-11-19T07:37:57;43.33;;;5.82;;
59169;SDS011;52474;52.236;5.114;2023-11-19T07:40:24;49.28;;;6.38;;
59169;SDS011;52474;52.236;5.114;2023-11-19T07:42:50;40.83;;;5.70;;
59169;SDS011;52474;52.236;5.114;2023-11-19T07:45:16;37.90;;;5.70;;
59169;SDS011;52474;52.236;5.114;2023-11-19T07:47:42;44.45;;;5.60;;
59169;SDS011;52474;52.236;5.114;2023-11-19T07:50:11;45.53;;;6.88;;
59169;SDS011;52474;52.236;5.114;2023-11-19T07:52:39;42.58;;;5.95;;
59169;SDS011;52474;52.236;5.114;2023-11-19T07:55:05;39.75;;;6.13;;
59169;SDS011;52474;52.236;5.114;2023-11-19T07:57:31;40.33;;;6.03;;
59169;SDS011;52474;52.236;5.114;2023-11-19T07:59:57;47.53;;;6.22;;
59169;SDS011;52474;52.236;5.114;2023-11-19T08:02:23;39.50;;;6.20;;
59169;SDS011;52474;52.236;5.114;2023-11-19T08:04:49;44.55;;;7.15;;
59169;SDS011;52474;52.236;5.114;2023-11-19T08:07:17;39.92;;;5.07;;
59169;SDS011;52474;52.236;5.114;2023-11-19T08:09:44;36.03;;;5.20;;
59169;SDS011;52474;52.236;5.114;2023-11-19T08:12:10;41.53;;;7.00;;
59169;SDS011;52474;52.236;5.114;2023-11-19T08:14:36;51.38;;;7.43;;
59169;SDS011;52474;52.236;5.114;2023-11-19T08:17:02;38.33;;;5.63;;
59169;SDS011;52474;52.236;5.114;2023-11-19T08:19:30;42.00;;;7.05;;
59169;SDS011;52474;52.236;5.114;2023-11-19T08:21:55;49.08;;;7.43;;
59169;SDS011;52474;52.236;5.114;2023-11-19T08:24:21;44.55;;;6.20;;
59169;SDS011;52474;52.236;5.114;2023-11-19T08:26:47;45.33;;;6.80;;
59169;SDS011;52474;52.236;5.114;2023-11-19T08:29:12;48.28;;;6.90;;
59169;SDS011;52474;52.236;5.114;2023-11-19T08:31:38;44.03;;;6.97;;
59169;SDS011;52474;52.236;5.114;2023-11-19T08:34:04;52.67;;;7.20;;
59169;SDS011;52474;52.236;5.114;2023-11-19T08:36:34;32.97;;;5.78;;
59169;SDS011;52474;52.236;5.114;2023-11-19T08:39:00;45.25;;;7.13;;
59169;SDS011;52474;52.236;5.114;2023-11-19T08:41:25;49.08;;;6.90;;
59169;SDS011;52474;52.236;5.114;2023-11-19T08:43:52;47.47;;;6.68;;
59169;SDS011;52474;52.236;5.114;2023-11-19T08:46:18;46.75;;;7.35;;
59169;SDS011;52474;52.236;5.114;2023-11-19T08:48:44;46.03;;;6.57;;
59169;SDS011;52474;52.236;5.114;2023-11-19T08:51:10;36.75;;;6.53;;
59169;SDS011;52474;52.236;5.114;2023-11-19T08:53:36;48.53;;;6.68;;
59169;SDS011;52474;52.236;5.114;2023-11-19T08:56:02;39.80;;;6.18;;
59169;SDS011;52474;52.236;5.114;2023-11-19T08:58:28;40.50;;;6.65;;
59169;SDS011;52474;52.236;5.114;2023-11-19T09:00:54;54.95;;;6.88;;
59169;SDS011;52474;52.236;5.114;2023-11-19T09:03:20;49.05;;;7.85;;
59169;SDS011;52474;52.236;5.114;2023-11-19T09:05:46;46.17;;;13.07;;
59169;SDS011;52474;52.236;5.114;2023-11-19T09:08:11;53.20;;;26.45;;
59169;SDS011;52474;52.236;5.114;2023-11-19T09:10:37;53.65;;;15.35;;
59169;SDS011;52474;52.236;5.114;2023-11-19T09:13:03;43.20;;;11.10;;
59169;SDS011;52474;52.236;5.114;2023-11-19T09:15:29;47.75;;;13.25;;
59169;SDS011;52474;52.236;5.114;2023-11-19T09:17:55;45.00;;;7.53;;
59169;SDS011;52474;52.236;5.114;2023-11-19T09:20:32;43.22;;;7.53;;
59169;SDS011;52474;52.236;5.114;2023-11-19T09:23:03;38.92;;;6.13;;
59169;SDS011;52474;52.236;5.114;2023-11-19T09:25:30;47.45;;;10.60;;
59169;SDS011;52474;52.236;5.114;2023-11-19T09:27:56;45.72;;;10.70;;
59169;SDS011;52474;52.236;5.114;2023-11-19T09:30:22;51.35;;;11.20;;
59169;SDS011;52474;52.236;5.114;2023-11-19T09:32:48;50.65;;;13.15;;
59169;SDS011;52474;52.236;5.114;2023-11-19T09:35:13;51.53;;;15.40;;
59169;SDS011;52474;52.236;5.114;2023-11-19T09:37:40;62.95;;;34.42;;
59169;SDS011;52474;52.236;5.114;2023-11-19T09:40:06;51.72;;;23.88;;
59169;SDS011;52474;52.236;5.114;2023-11-19T09:42:39;42.83;;;10.55;;
59169;SDS011;52474;52.236;5.114;2023-11-19T09:45:12;41.55;;;7.65;;
59169;SDS011;52474;52.236;5.114;2023-11-19T09:47:42;39.55;;;8.60;;
59169;SDS011;52474;52.236;5.114;2023-11-19T09:50:10;45.45;;;7.25;;
59169;SDS011;52474;52.236;5.114;2023-11-19T09:52:42;45.65;;;8.60;;
59169;SDS011;52474;52.236;5.114;2023-11-19T09:55:08;42.30;;;11.35;;
59169;SDS011;52474;52.236;5.114;2023-11-19T09:57:34;41.50;;;11.80;;
59169;SDS011;52474;52.236;5.114;2023-11-19T10:00:02;48.75;;;11.07;;
59169;SDS011;52474;52.236;5.114;2023-11-19T10:02:31;35.65;;;7.90;;
59169;SDS011;52474;52.236;5.114;2023-11-19T10:04:59;41.28;;;7.30;;
59169;SDS011;52474;52.236;5.114;2023-11-19T10:07:28;45.80;;;11.98;;
59169;SDS011;52474;52.236;5.114;2023-11-19T10:09:54;42.45;;;8.05;;
59169;SDS011;52474;52.236;5.114;2023-11-19T10:12:19;38.92;;;7.28;;
59169;SDS011;52474;52.236;5.114;2023-11-19T10:14:45;48.72;;;13.68;;
59169;SDS011;52474;52.236;5.114;2023-11-19T10:17:12;35.47;;;6.68;;
59169;SDS011;52474;52.236;5.114;2023-11-19T10:19:39;42.60;;;7.82;;
59169;SDS011;52474;52.236;5.114;2023-11-19T10:22:06;37.30;;;7.35;;
59169;SDS011;52474;52.236;5.114;2023-11-19T10:24:33;32.85;;;6.55;;
59169;SDS011;52474;52.236;5.114;2023-11-19T10:26:59;40.83;;;7.25;;
59169;SDS011;52474;52.236;5.114;2023-11-19T10:29:29;44.55;;;7.38;;
59169;SDS011;52474;52.236;5.114;2023-11-19T10:31:55;41.20;;;6.80;;
59169;SDS011;52474;52.236;5.114;2023-11-19T10:34:26;36.38;;;6.53;;
59169;SDS011;52474;52.236;5.114;2023-11-19T10:36:52;38.72;;;6.60;;
59169;SDS011;52474;52.236;5.114;2023-11-19T10:39:18;35.47;;;5.43;;
59169;SDS011;52474;52.236;5.114;2023-11-19T10:41:46;33.80;;;5.70;;
59169;SDS011;52474;52.236;5.114;2023-11-19T10:44:12;39.15;;;5.80;;
59169;SDS011;52474;52.236;5.114;2023-11-19T10:46:38;29.58;;;5.35;;
59169;SDS011;52474;52.236;5.114;2023-11-19T10:49:06;27.67;;;4.95;;
59169;SDS011;52474;52.236;5.114;2023-11-19T10:51:32;38.40;;;4.57;;
59169;SDS011;52474;52.236;5.114;2023-11-19T10:54:01;27.75;;;5.38;;
59169;SDS011;52474;52.236;5.114;2023-11-19T10:56:32;30.10;;;5.38;;
59169;SDS011;52474;52.236;5.114;2023-11-19T10:58:59;25.83;;;5.43;;
59169;SDS011;52474;52.236;5.114;2023-11-19T11:01:33;31.58;;;5.43;;
59169;SDS011;52474;52.236;5.114;2023-11-19T11:04:05;30.65;;;5.18;;
59169;SDS011;52474;52.236;5.114;2023-11-19T11:06:40;29.13;;;4.18;;
59169;SDS011;52474;52.236;5.114;2023-11-19T11:09:07;34.35;;;5.65;;
59169;SDS011;52474;52.236;5.114;2023-11-19T11:11:38;30.60;;;4.93;;
59169;SDS011;52474;52.236;5.114;2023-11-19T11:14:05;25.52;;;4.70;;
59169;SDS011;52474;52.236;5.114;2023-11-19T11:16:33;33.15;;;5.18;;
59169;SDS011;52474;52.236;5.114;2023-11-19T11:19:01;27.77;;;4.40;;
59169;SDS011;52474;52.236;5.114;2023-11-19T11:21:27;26.75;;;5.10;;
59169;SDS011;52474;52.236;5.114;2023-11-19T11:27:02;31.05;;;5.15;;
59169;SDS011;52474;52.236;5.114;2023-11-19T11:29:40;26.65;;;3.95;;
59169;SDS011;52474;52.236;5.114;2023-11-19T11:32:16;32.10;;;5.00;;
59169;SDS011;52474;52.236;5.114;2023-11-19T11:38:08;27.17;;;4.32;;
59169;SDS011;52474;52.236;5.114;2023-11-19T11:40:34;30.50;;;4.95;;
59169;SDS011;52474;52.236;5.114;2023-11-19T11:43:01;28.08;;;4.90;;
59169;SDS011;52474;52.236;5.114;2023-11-19T11:45:34;24.98;;;4.40;;
59169;SDS011;52474;52.236;5.114;2023-11-19T11:48:08;24.98;;;4.05;;
59169;SDS011;52474;52.236;5.114;2023-11-19T11:50:35;18.05;;;3.97;;
59169;SDS011;52474;52.236;5.114;2023-11-19T11:55:37;28.42;;;4.07;;
59169;SDS011;52474;52.236;5.114;2023-11-19T11:58:17;26.63;;;4.10;;
59169;SDS011;52474;52.236;5.114;2023-11-19T12:00:47;22.50;;;4.30;;
59169;SDS011;52474;52.236;5.114;2023-11-19T12:03:13;23.63;;;5.05;;
59169;SDS011;52474;52.236;5.114;2023-11-19T12:05:43;35.10;;;5.50;;
59169;SDS011;52474;52.236;5.114;2023-11-19T12:08:10;27.33;;;4.45;;
59169;SDS011;52474;52.236;5.114;2023-11-19T12:10:46;37.83;;;5.75;;
59169;SDS011;52474;52.236;5.114;2023-11-19T12:13:13;31.30;;;5.10;;
59169;SDS011;52474;52.236;5.114;2023-11-19T12:16:13;28.52;;;5.05;;
59169;SDS011;52474;52.236;5.114;2023-11-19T12:18:32;30.55;;;5.70;;
59169;SDS011;52474;52.236;5.114;2023-11-19T12:20:58;34.92;;;5.70;;
59169;SDS011;52474;52.236;5.114;2023-11-19T12:23:31;44.67;;;7.38;;
59169;SDS011;52474;52.236;5.114;2023-11-19T12:25:58;27.50;;;5.07;;
59169;SDS011;52474;52.236;5.114;2023-11-19T12:28:24;37.00;;;5.25;;
59169;SDS011;52474;52.236;5.114;2023-11-19T12:30:52;29.40;;;5.10;;
59169;SDS011;52474;52.236;5.114;2023-11-19T12:33:19;29.58;;;4.80;;
59169;SDS011;52474;52.236;5.114;2023-11-19T12:35:48;30.75;;;5.30;;
59169;SDS011;52474;52.236;5.114;2023-11-19T12:41:02;29.33;;;4.75;;
59169;SDS011;52474;52.236;5.114;2023-11-19T12:43:31;32.63;;;4.82;;
59169;SDS011;52474;52.236;5.114;2023-11-19T12:45:59;25.73;;;4.63;;
59169;SDS011;52474;52.236;5.114;2023-11-19T12:48:25;28.55;;;4.75;;
59169;SDS011;52474;52.236;5.114;2023-11-19T12:50:57;23.55;;;4.03;;
59169;SDS011;52474;52.236;5.114;2023-11-19T12:53:24;27.98;;;4.40;;
59169;SDS011;52474;52.236;5.114;2023-11-19T12:55:51;21.45;;;3.80;;
59169;SDS011;52474;52.236;5.114;2023-11-19T12:58:36;22.15;;;4.00;;
59169;SDS011;52474;52.236;5.114;2023-11-19T13:01:02;20.98;;;3.55;;
59169;SDS011;52474;52.236;5.114;2023-11-19T13:03:30;21.25;;;3.50;;
59169;SDS011;52474;52.236;5.114;2023-11-19T13:08:38;23.15;;;3.92;;
59169;SDS011;52474;52.236;5.114;2023-11-19T13:11:09;26.45;;;3.70;;
59169;SDS011;52474;52.236;5.114;2023-11-19T13:13:54;24.05;;;3.92;;
59169;SDS011;52474;52.236;5.114;2023-11-19T13:16:21;27.48;;;4.93;;
59169;SDS011;52474;52.236;5.114;2023-11-19T13:18:47;33.90;;;4.80;;
59169;SDS011;52474;52.236;5.114;2023-11-19T13:21:13;34.33;;;5.25;;
59169;SDS011;52474;52.236;5.114;2023-11-19T13:23:39;30.10;;;4.93;;
59169;SDS011;52474;52.236;5.114;2023-11-19T13:26:04;26.95;;;5.00;;
59169;SDS011;52474;52.236;5.114;2023-11-19T13:28:30;29.23;;;4.85;;
59169;SDS011;52474;52.236;5.114;2023-11-19T13:30:56;23.08;;;4.45;;
59169;SDS011;52474;52.236;5.114;2023-11-19T13:33:22;22.90;;;3.95;;
59169;SDS011;52474;52.236;5.114;2023-11-19T13:35:47;26.00;;;4.00;;
59169;SDS011;52474;52.236;5.114;2023-11-19T13:38:13;33.20;;;5.20;;
59169;SDS011;52474;52.236;5.114;2023-11-19T13:40:38;35.08;;;5.35;;
59169;SDS011;52474;52.236;5.114;2023-11-19T13:43:04;35.55;;;5.47;;
59169;SDS011;52474;52.236;5.114;2023-11-19T13:45:30;32.88;;;5.25;;
59169;SDS011;52474;52.236;5.114;2023-11-19T13:47:57;39.60;;;5.00;;
59169;SDS011;52474;52.236;5.114;2023-11-19T13:50:23;41.40;;;5.78;;
59169;SDS011;52474;52.236;5.114;2023-11-19T13:52:48;37.17;;;5.13;;
59169;SDS011;52474;52.236;5.114;2023-11-19T13:55:14;31.60;;;5.60;;
59169;SDS011;52474;52.236;5.114;2023-11-19T13:57:41;33.75;;;5.25;;
59169;SDS011;52474;52.236;5.114;2023-11-19T14:00:08;36.35;;;5.65;;
59169;SDS011;52474;52.236;5.114;2023-11-19T14:02:45;28.45;;;4.90;;
59169;SDS011;52474;52.236;5.114;2023-11-19T14:05:12;25.42;;;4.72;;
59169;SDS011;52474;52.236;5.114;2023-11-19T14:07:39;33.05;;;5.90;;
59169;SDS011;52474;52.236;5.114;2023-11-19T14:10:06;31.20;;;4.75;;
59169;SDS011;52474;52.236;5.114;2023-11-19T14:12:34;37.50;;;5.32;;
59169;SDS011;52474;52.236;5.114;2023-11-19T14:15:04;30.73;;;4.75;;
59169;SDS011;52474;52.236;5.114;2023-11-19T14:17:34;35.95;;;4.90;;
59169;SDS011;52474;52.236;5.114;2023-11-19T14:20:03;37.03;;;6.57;;
59169;SDS011;52474;52.236;5.114;2023-11-19T14:22:39;33.22;;;5.78;;
59169;SDS011;52474;52.236;5.114;2023-11-19T14:25:05;27.52;;;5.00;;
59169;SDS011;52474;52.236;5.114;2023-11-19T14:27:38;37.60;;;6.15;;
59169;SDS011;52474;52.236;5.114;2023-11-19T14:30:08;34.33;;;5.75;;
59169;SDS011;52474;52.236;5.114;2023-11-19T14:32:39;36.72;;;5.25;;
59169;SDS011;52474;52.236;5.114;2023-11-19T14:35:06;35.47;;;5.35;;
59169;SDS011;52474;52.236;5.114;2023-11-19T14:37:32;33.95;;;6.28;;
59169;SDS011;52474;52.236;5.114;2023-11-19T14:39:58;35.08;;;5.40;;
59169;SDS011;52474;52.236;5.114;2023-11-19T14:42:25;31.77;;;4.82;;
59169;SDS011;52474;52.236;5.114;2023-11-19T14:44:51;32.05;;;5.13;;
59169;SDS011;52474;52.236;5.114;2023-11-19T14:47:24;26.40;;;4.97;;
59169;SDS011;52474;52.236;5.114;2023-11-19T14:49:50;36.30;;;5.30;;